createdAt,value
2019-01-06T00:00:18.450Z,3.7
2019-01-06T00:01:28.409Z,3.7
2019-01-06T00:02:38.366Z,3.74
2019-01-06T00:03:47.560Z,3.68
2019-01-06T00:04:57.507Z,3.7
2019-01-06T00:06:07.201Z,3.71
2019-01-06T00:07:17.137Z,3.73
2019-01-06T00:08:27.081Z,3.68
2019-01-06T00:09:37.056Z,3.74
2019-01-06T00:10:46.503Z,3.7
2019-01-06T00:11:56.191Z,3.76
2019-01-06T00:13:05.993Z,3.77
2019-01-06T00:14:15.954Z,3.68
2019-01-06T00:15:25.898Z,3.68
2019-01-06T00:16:35.588Z,3.67
2019-01-06T00:17:45.260Z,3.84
2019-01-06T00:18:54.953Z,3.85
2019-01-06T00:20:04.651Z,3.81
2019-01-06T00:21:14.594Z,3.84
2019-01-06T00:22:24.037Z,3.81
2019-01-06T00:23:33.728Z,3.82
2019-01-06T00:24:43.675Z,3.81
2019-01-06T00:25:53.618Z,3.84
2019-01-06T00:27:03.558Z,3.85
2019-01-06T00:28:13.510Z,3.82
2019-01-06T00:29:23.436Z,3.81
2019-01-06T00:30:33.396Z,3.68
2019-01-06T00:31:43.353Z,3.71
2019-01-06T00:32:53.302Z,3.73
2019-01-06T00:34:03.237Z,3.68
2019-01-06T00:35:13.175Z,3.71
2019-01-06T00:36:22.881Z,3.68
2019-01-06T00:37:32.829Z,3.64
2019-01-06T00:38:42.526Z,3.7
2019-01-06T00:39:52.469Z,3.68
2019-01-06T00:41:01.906Z,3.68
2019-01-06T00:42:11.865Z,3.58
2019-01-06T00:43:21.545Z,3.59
2019-01-06T00:44:31.494Z,3.55
2019-01-06T00:45:40.771Z,3.55
2019-01-06T00:46:50.722Z,3.56
2019-01-06T00:48:00.682Z,3.52
2019-01-06T00:49:10.370Z,3.5
2019-01-06T00:50:20.078Z,3.48
2019-01-06T00:51:30.013Z,3.45
2019-01-06T00:52:39.969Z,3.49
2019-01-06T00:53:49.663Z,3.36
2019-01-06T00:54:59.370Z,3.4
2019-01-06T00:56:08.812Z,3.43
2019-01-06T00:57:18.235Z,3.41
2019-01-06T00:58:28.168Z,3.36
2019-01-06T00:59:38.349Z,3.45
2019-01-06T01:00:48.359Z,3.43
2019-01-06T01:01:58.059Z,3.34
2019-01-06T01:03:08.023Z,3.36
2019-01-06T01:04:17.957Z,3.3
2019-01-06T01:05:27.899Z,3.31
2019-01-06T01:06:37.859Z,3.27
2019-01-06T01:07:47.799Z,3.31
2019-01-06T01:08:57.745Z,3.24
2019-01-06T01:10:07.699Z,3.18
2019-01-06T01:11:17.659Z,3.06
2019-01-06T01:12:27.614Z,3.13
2019-01-06T01:13:37.555Z,3.03
2019-01-06T01:14:47.003Z,3.05
2019-01-06T01:15:56.943Z,2.93
2019-01-06T01:17:06.623Z,3
2019-01-06T01:18:16.319Z,2.85
2019-01-06T01:19:26.282Z,2.85
2019-01-06T01:20:35.961Z,2.82
2019-01-06T01:21:45.668Z,2.76
2019-01-06T01:22:55.651Z,2.73
2019-01-06T01:24:05.589Z,2.72
2019-01-06T01:25:15.300Z,2.79
2019-01-06T01:26:24.987Z,2.77
2019-01-06T01:27:34.922Z,2.77
2019-01-06T01:28:44.866Z,2.72
2019-01-06T01:29:54.557Z,2.75
2019-01-06T01:31:04.253Z,2.75
2019-01-06T01:32:13.957Z,2.72
2019-01-06T01:33:23.896Z,2.75
2019-01-06T01:34:33.577Z,2.68
2019-01-06T01:35:43.522Z,2.79
2019-01-06T01:36:53.451Z,2.79
2019-01-06T01:38:03.131Z,2.68
2019-01-06T01:39:13.102Z,2.75
2019-01-06T01:40:23.050Z,2.75
2019-01-06T01:41:32.485Z,2.76
2019-01-06T01:42:42.207Z,2.79
2019-01-06T01:43:52.143Z,2.79
2019-01-06T01:45:02.082Z,2.8
2019-01-06T01:46:12.024Z,2.69
2019-01-06T01:47:21.714Z,2.75
2019-01-06T01:48:31.156Z,2.76
2019-01-06T01:49:40.857Z,2.69
2019-01-06T01:50:50.819Z,2.75
2019-01-06T01:52:00.751Z,2.77
2019-01-06T01:53:10.689Z,2.7
2019-01-06T01:54:20.375Z,2.76
2019-01-06T01:55:29.809Z,2.76
2019-01-06T01:56:39.602Z,2.77
2019-01-06T01:57:49.278Z,2.7
2019-01-06T01:58:58.720Z,2.73
2019-01-06T02:00:08.413Z,2.65
2019-01-06T02:01:17.833Z,2.64
2019-01-06T02:02:27.777Z,2.64
2019-01-06T02:03:37.461Z,2.7
2019-01-06T02:04:47.387Z,2.59
2019-01-06T02:05:57.303Z,2.59
2019-01-06T02:07:07.261Z,2.57
2019-01-06T02:08:16.953Z,2.59
2019-01-06T02:09:26.883Z,2.59
2019-01-06T02:10:36.570Z,2.61
2019-01-06T02:11:46.007Z,2.57
2019-01-06T02:12:55.689Z,2.57
2019-01-06T02:14:05.626Z,2.58
2019-01-06T02:15:15.648Z,2.5
2019-01-06T02:16:25.600Z,2.55
2019-01-06T02:17:35.091Z,2.47
2019-01-06T02:18:45.012Z,2.5
2019-01-06T02:19:54.901Z,2.5
2019-01-06T02:21:04.851Z,2.51
2019-01-06T02:22:14.779Z,2.47
2019-01-06T02:23:24.705Z,2.51
2019-01-06T02:24:34.645Z,2.55
2019-01-06T02:25:44.314Z,2.58
2019-01-06T02:26:54.010Z,2.59
2019-01-06T02:28:03.939Z,2.61
2019-01-06T02:29:13.629Z,2.62
2019-01-06T02:30:23.334Z,2.54
2019-01-06T02:31:33.269Z,2.62
2019-01-06T02:32:43.221Z,2.57
2019-01-06T02:33:53.152Z,2.54
2019-01-06T02:35:02.856Z,2.57
2019-01-06T02:36:12.816Z,2.5
2019-01-06T02:37:22.757Z,2.5
2019-01-06T02:38:32.729Z,2.46
2019-01-06T02:39:42.410Z,2.57
2019-01-06T02:40:52.111Z,2.62
2019-01-06T02:42:01.810Z,2.57
2019-01-06T02:43:11.267Z,2.59
2019-01-06T02:44:20.989Z,2.59
2019-01-06T02:45:30.677Z,2.59
2019-01-06T02:46:40.138Z,2.51
2019-01-06T02:47:49.836Z,2.47
2019-01-06T02:48:59.802Z,2.51
2019-01-06T02:50:09.725Z,2.52
2019-01-06T02:51:19.665Z,2.46
2019-01-06T02:52:29.344Z,2.47
2019-01-06T02:53:39.054Z,2.44
2019-01-06T02:54:48.995Z,2.51
2019-01-06T02:55:58.677Z,2.46
2019-01-06T02:57:08.123Z,2.51
2019-01-06T02:58:17.556Z,2.43
2019-01-06T02:59:27.502Z,2.52
2019-01-06T03:00:37.196Z,2.44
2019-01-06T03:01:46.883Z,2.47
2019-01-06T03:02:56.595Z,2.44
2019-01-06T03:04:06.546Z,2.5
2019-01-06T03:05:16.006Z,2.5
2019-01-06T03:06:25.968Z,2.5
2019-01-06T03:07:35.684Z,2.5
2019-01-06T03:08:45.645Z,2.5
2019-01-06T03:09:55.588Z,2.47
2019-01-06T03:11:05.475Z,2.47
2019-01-06T03:12:15.401Z,2.58
2019-01-06T03:13:25.104Z,2.47
2019-01-06T03:14:35.035Z,2.5
2019-01-06T03:15:44.976Z,2.5
2019-01-06T03:16:54.915Z,2.59
2019-01-06T03:18:04.631Z,2.58
2019-01-06T03:19:14.581Z,2.59
2019-01-06T03:20:24.551Z,2.54
2019-01-06T03:21:34.537Z,2.57
2019-01-06T03:22:44.228Z,2.57
2019-01-06T03:23:53.928Z,2.65
2019-01-06T03:25:03.610Z,2.72
2019-01-06T03:26:13.570Z,2.7
2019-01-06T03:27:23.520Z,2.73
2019-01-06T03:28:33.454Z,2.73
2019-01-06T03:29:43.142Z,2.69
2019-01-06T03:30:53.116Z,2.68
2019-01-06T03:32:02.861Z,2.72
2019-01-06T03:33:12.956Z,2.69
2019-01-06T03:34:22.922Z,2.68
2019-01-06T03:35:32.878Z,2.68
2019-01-06T03:36:42.576Z,2.68
2019-01-06T03:37:52.285Z,2.65
2019-01-06T03:39:01.978Z,2.7
2019-01-06T03:40:11.674Z,2.7
2019-01-06T03:41:21.370Z,2.65
2019-01-06T03:42:31.318Z,2.68
2019-01-06T03:43:41.256Z,2.7
2019-01-06T03:44:51.191Z,2.68
2019-01-06T03:46:00.889Z,2.58
2019-01-06T03:47:10.840Z,2.73
2019-01-06T03:48:20.781Z,2.7
2019-01-06T03:49:30.720Z,2.69
2019-01-06T03:50:40.174Z,2.7
2019-01-06T03:51:50.122Z,2.68
2019-01-06T03:53:00.070Z,2.75
2019-01-06T03:54:10.049Z,2.65
2019-01-06T03:55:19.741Z,2.76
2019-01-06T03:56:29.686Z,2.65
2019-01-06T03:57:39.381Z,2.72
2019-01-06T03:58:49.082Z,2.69
2019-01-06T04:00:00.774Z,2.65
2019-01-06T04:01:10.922Z,2.58
2019-01-06T04:02:20.598Z,2.65
2019-01-06T04:03:30.552Z,2.58
2019-01-06T04:04:40.248Z,2.68
2019-01-06T04:05:49.782Z,2.62
2019-01-06T04:06:59.732Z,2.59
2019-01-06T04:08:09.420Z,2.59
2019-01-06T04:09:19.379Z,2.59
2019-01-06T04:10:29.335Z,2.58
2019-01-06T04:11:39.047Z,2.7
2019-01-06T04:12:48.977Z,2.69
2019-01-06T04:13:58.678Z,2.57
2019-01-06T04:15:08.627Z,2.54
2019-01-06T04:16:18.323Z,2.62
2019-01-06T04:17:27.758Z,2.65
2019-01-06T04:18:37.706Z,2.72
2019-01-06T04:19:47.699Z,2.73
2019-01-06T04:20:57.382Z,2.65
2019-01-06T04:22:07.323Z,2.72
2019-01-06T04:23:16.764Z,2.69
2019-01-06T04:24:26.450Z,2.7
2019-01-06T04:25:36.400Z,2.7
2019-01-06T04:26:46.116Z,2.69
2019-01-06T04:27:55.808Z,2.64
2019-01-06T04:29:05.750Z,2.77
2019-01-06T04:30:15.692Z,2.68
2019-01-06T04:31:25.626Z,2.75
2019-01-06T04:32:35.346Z,2.8
2019-01-06T04:33:45.300Z,2.82
2019-01-06T04:34:55.254Z,2.8
2019-01-06T04:36:05.199Z,2.76
2019-01-06T04:37:15.149Z,2.73
2019-01-06T04:38:24.850Z,2.77
2019-01-06T04:39:34.546Z,2.77
2019-01-06T04:40:44.458Z,2.76
2019-01-06T04:41:54.395Z,2.77
2019-01-06T04:43:04.103Z,2.75
2019-01-06T04:44:14.216Z,2.7
2019-01-06T04:45:23.919Z,2.65
2019-01-06T04:46:33.876Z,2.79
2019-01-06T04:47:43.811Z,2.69
2019-01-06T04:48:53.757Z,2.7
2019-01-06T04:50:03.700Z,2.7
2019-01-06T04:51:13.640Z,2.72
2019-01-06T04:52:23.586Z,2.68
2019-01-06T04:53:33.290Z,2.72
2019-01-06T04:54:43.447Z,2.68
2019-01-06T04:55:53.136Z,2.7
2019-01-06T04:57:03.366Z,2.62
2019-01-06T04:58:13.318Z,2.69
2019-01-06T04:59:23.333Z,2.73
2019-01-06T05:00:33.059Z,2.7
2019-01-06T05:01:43.038Z,2.77
2019-01-06T05:02:52.745Z,2.75
2019-01-06T05:04:02.443Z,2.82
2019-01-06T05:05:12.143Z,2.77
2019-01-06T05:06:22.088Z,2.72
2019-01-06T05:07:32.017Z,2.73
2019-01-06T05:08:41.706Z,2.77
2019-01-06T05:09:51.646Z,2.79
2019-01-06T05:11:01.614Z,2.7
2019-01-06T05:12:11.601Z,2.68
2019-01-06T05:13:21.548Z,2.65
2019-01-06T05:14:31.492Z,2.57
2019-01-06T05:15:41.189Z,2.73
2019-01-06T05:16:50.894Z,2.65
2019-01-06T05:18:00.579Z,2.69
2019-01-06T05:19:10.260Z,2.58
2019-01-06T05:20:20.200Z,2.68
2019-01-06T05:21:30.154Z,2.59
2019-01-06T05:22:40.085Z,2.58
2019-01-06T05:23:49.789Z,2.55
2019-01-06T05:24:59.735Z,2.7
2019-01-06T05:26:09.193Z,2.64
2019-01-06T05:27:18.888Z,2.55
2019-01-06T05:28:28.819Z,2.61
2019-01-06T05:29:38.512Z,2.58
2019-01-06T05:30:47.949Z,2.57
2019-01-06T05:31:57.936Z,2.59
2019-01-06T05:33:07.874Z,2.57
2019-01-06T05:34:17.318Z,2.59
2019-01-06T05:35:27.023Z,2.59
2019-01-06T05:36:36.968Z,2.59
2019-01-06T05:37:46.905Z,2.5
2019-01-06T05:38:56.091Z,2.57
2019-01-06T05:40:05.768Z,2.54
2019-01-06T05:41:15.719Z,2.59
2019-01-06T05:42:25.423Z,2.59
2019-01-06T05:43:35.145Z,2.52
2019-01-06T05:44:45.114Z,2.46
2019-01-06T05:45:54.818Z,2.5
2019-01-06T05:47:04.761Z,2.55
2019-01-06T05:48:14.705Z,2.51
2019-01-06T05:49:24.394Z,2.5
2019-01-06T05:50:34.350Z,2.52
2019-01-06T05:51:44.294Z,2.47
2019-01-06T05:52:53.975Z,2.5
2019-01-06T05:54:03.444Z,2.47
2019-01-06T05:55:13.142Z,2.51
2019-01-06T05:56:23.087Z,2.5
2019-01-06T05:57:32.782Z,2.52
2019-01-06T05:58:42.805Z,2.43
2019-01-06T05:59:52.739Z,2.46
2019-01-06T06:01:02.683Z,2.5
2019-01-06T06:02:12.463Z,2.52
2019-01-06T06:03:22.395Z,2.41
2019-01-06T06:04:32.092Z,2.39
2019-01-06T06:05:41.522Z,2.4
2019-01-06T06:06:50.705Z,2.4
2019-01-06T06:08:00.400Z,2.37
2019-01-06T06:09:10.352Z,2.43
2019-01-06T06:10:20.050Z,2.43
2019-01-06T06:11:29.995Z,2.43
2019-01-06T06:12:39.954Z,2.41
2019-01-06T06:13:49.642Z,2.43
2019-01-06T06:14:59.575Z,2.46
2019-01-06T06:16:09.018Z,2.47
2019-01-06T06:17:18.701Z,2.44
2019-01-06T06:18:28.373Z,2.46
2019-01-06T06:19:38.321Z,2.47
2019-01-06T06:20:48.021Z,2.4
2019-01-06T06:21:57.699Z,2.43
2019-01-06T06:23:07.635Z,2.47
2019-01-06T06:24:17.794Z,2.41
2019-01-06T06:25:27.881Z,2.46
2019-01-06T06:26:37.591Z,2.52
2019-01-06T06:27:47.578Z,2.5
2019-01-06T06:28:57.562Z,2.5
2019-01-06T06:30:07.250Z,2.52
2019-01-06T06:31:17.189Z,2.47
2019-01-06T06:32:26.619Z,2.44
2019-01-06T06:33:36.570Z,2.47
2019-01-06T06:34:46.274Z,2.41
2019-01-06T06:35:55.719Z,2.52
2019-01-06T06:37:05.407Z,2.55
2019-01-06T06:38:15.361Z,2.46
2019-01-06T06:39:25.036Z,2.47
2019-01-06T06:40:34.986Z,2.52
2019-01-06T06:41:44.928Z,2.62
2019-01-06T06:42:54.627Z,2.46
2019-01-06T06:44:04.573Z,2.52
2019-01-06T06:45:14.517Z,2.47
2019-01-06T06:46:24.459Z,2.5
2019-01-06T06:47:34.439Z,2.46
2019-01-06T06:48:44.402Z,2.46
2019-01-06T06:49:54.354Z,2.44
2019-01-06T06:51:04.307Z,2.5
2019-01-06T06:52:14.261Z,2.46
2019-01-06T06:53:23.951Z,2.43
2019-01-06T06:54:33.889Z,2.43
2019-01-06T06:55:43.579Z,2.46
2019-01-06T06:56:53.270Z,2.39
2019-01-06T06:58:02.990Z,2.36
2019-01-06T06:59:12.419Z,2.41
2019-01-06T07:00:22.377Z,2.4
2019-01-06T07:01:32.315Z,2.43
2019-01-06T07:02:42.023Z,2.43
2019-01-06T07:03:51.973Z,2.36
2019-01-06T07:05:01.408Z,2.44
2019-01-06T07:06:11.097Z,2.41
2019-01-06T07:07:20.781Z,2.51
2019-01-06T07:08:30.717Z,2.44
2019-01-06T07:09:40.653Z,2.5
2019-01-06T07:10:50.587Z,2.44
2019-01-06T07:12:00.519Z,2.46
2019-01-06T07:13:10.202Z,2.5
2019-01-06T07:14:20.151Z,2.47
2019-01-06T07:15:30.104Z,2.51
2019-01-06T07:16:39.817Z,2.5
2019-01-06T07:17:49.777Z,2.5
2019-01-06T07:18:59.745Z,2.54
2019-01-06T07:20:09.449Z,2.52
2019-01-06T07:21:19.145Z,2.57
2019-01-06T07:22:29.089Z,2.46
2019-01-06T07:23:38.530Z,2.54
2019-01-06T07:24:48.213Z,2.47
2019-01-06T07:25:58.149Z,2.51
2019-01-06T07:27:08.095Z,2.55
2019-01-06T07:28:18.039Z,2.55
2019-01-06T07:29:27.979Z,2.58
2019-01-06T07:30:37.678Z,2.57
2019-01-06T07:31:47.367Z,2.61
2019-01-06T07:32:57.297Z,2.62
2019-01-06T07:34:06.977Z,2.52
2019-01-06T07:35:16.651Z,2.58
2019-01-06T07:36:26.088Z,2.58
2019-01-06T07:37:35.803Z,2.62
2019-01-06T07:38:45.749Z,2.64
2019-01-06T07:39:55.187Z,2.62
2019-01-06T07:41:05.120Z,2.55
2019-01-06T07:42:15.063Z,2.44
2019-01-06T07:43:24.573Z,2.47
2019-01-06T07:44:34.511Z,2.51
2019-01-06T07:45:44.460Z,2.5
2019-01-06T07:46:54.145Z,2.51
2019-01-06T07:48:03.837Z,2.58
2019-01-06T07:49:13.789Z,2.52
2019-01-06T07:50:23.730Z,2.61
2019-01-06T07:51:33.423Z,2.52
2019-01-06T07:52:43.357Z,2.59
2019-01-06T07:53:53.303Z,2.58
2019-01-06T07:55:02.754Z,2.61
2019-01-06T07:56:12.938Z,2.62
2019-01-06T07:57:22.617Z,2.68
2019-01-06T07:58:32.557Z,2.65
2019-01-06T07:59:42.511Z,2.65
2019-01-06T08:00:52.451Z,2.65
2019-01-06T08:02:02.128Z,2.69
2019-01-06T08:03:12.077Z,2.68
2019-01-06T08:04:21.771Z,2.69
2019-01-06T08:05:31.704Z,2.7
2019-01-06T08:06:41.386Z,2.65
2019-01-06T08:07:51.324Z,2.68
2019-01-06T08:09:01.019Z,2.73
2019-01-06T08:10:10.945Z,2.72
2019-01-06T08:11:20.898Z,2.7
2019-01-06T08:12:30.833Z,2.72
2019-01-06T08:13:40.281Z,2.9
2019-01-06T08:14:49.978Z,2.73
2019-01-06T08:15:59.950Z,2.83
2019-01-06T08:17:09.630Z,2.85
2019-01-06T08:18:19.350Z,2.83
2019-01-06T08:19:29.287Z,2.82
2019-01-06T08:20:38.975Z,2.9
2019-01-06T08:21:48.677Z,2.94
2019-01-06T08:22:58.626Z,2.98
2019-01-06T08:24:08.324Z,2.93
2019-01-06T08:25:17.767Z,3.01
2019-01-06T08:26:27.254Z,2.95
2019-01-06T08:27:37.186Z,2.95
2019-01-06T08:28:47.143Z,3.05
2019-01-06T08:29:56.578Z,3.08
2019-01-06T08:31:06.528Z,3.01
2019-01-06T08:32:16.451Z,3.03
2019-01-06T08:33:26.164Z,3.09
2019-01-06T08:34:36.100Z,3.06
2019-01-06T08:35:46.045Z,3.06
2019-01-06T08:36:55.481Z,3.01
2019-01-06T08:38:05.184Z,3.06
2019-01-06T08:39:15.138Z,3.08
2019-01-06T08:40:25.086Z,3.12
2019-01-06T08:41:34.768Z,3.11
2019-01-06T08:42:44.457Z,3.13
2019-01-06T08:43:54.143Z,3.06
2019-01-06T08:45:04.104Z,3.08
2019-01-06T08:46:14.051Z,3.13
2019-01-06T08:47:23.558Z,3.09
2019-01-06T08:48:33.260Z,3.19
2019-01-06T08:49:43.238Z,3.18
2019-01-06T08:50:53.199Z,3.13
2019-01-06T08:52:03.126Z,3.31
2019-01-06T08:53:13.074Z,3.21
2019-01-06T08:54:23.015Z,3.21
2019-01-06T08:55:32.715Z,3.31
2019-01-06T08:56:42.415Z,3.36
2019-01-06T08:57:52.355Z,3.33
2019-01-06T08:59:02.053Z,3.45
2019-01-06T09:00:11.743Z,3.49
2019-01-06T09:01:21.765Z,3.5
2019-01-06T09:02:31.709Z,3.49
2019-01-06T09:03:41.168Z,3.55
2019-01-06T09:04:50.608Z,3.59
2019-01-06T09:06:00.310Z,3.7
2019-01-06T09:07:10.253Z,3.71
2019-01-06T09:08:19.944Z,3.7
2019-01-06T09:09:29.916Z,3.56
2019-01-06T09:10:39.374Z,3.48
2019-01-06T09:11:49.314Z,3.46
2019-01-06T09:12:58.765Z,3.43
2019-01-06T09:14:08.698Z,3.49
2019-01-06T09:15:18.673Z,3.52
2019-01-06T09:16:28.614Z,3.49
2019-01-06T09:17:38.563Z,3.61
2019-01-06T09:18:48.265Z,3.59
2019-01-06T09:19:58.990Z,3.71
2019-01-06T09:21:08.694Z,3.71
2019-01-06T09:22:18.636Z,3.78
2019-01-06T09:23:28.085Z,3.82
2019-01-06T09:24:38.035Z,3.85
2019-01-06T09:25:48.026Z,3.84
2019-01-06T09:26:57.993Z,3.94
2019-01-06T09:28:07.931Z,3.76
2019-01-06T09:29:17.364Z,3.85
2019-01-06T09:30:27.322Z,3.77
2019-01-06T09:31:37.278Z,3.84
2019-01-06T09:32:47.224Z,3.84
2019-01-06T09:33:56.676Z,3.89
2019-01-06T09:35:06.635Z,3.85
2019-01-06T09:36:16.972Z,3.92
2019-01-06T09:37:26.663Z,3.82
2019-01-06T09:38:36.600Z,3.92
2019-01-06T09:39:46.052Z,3.86
2019-01-06T09:40:55.758Z,3.84
2019-01-06T09:42:05.702Z,3.82
2019-01-06T09:43:15.409Z,3.96
2019-01-06T09:44:25.368Z,3.88
2019-01-06T09:45:35.882Z,3.94
2019-01-06T09:46:47.011Z,3.96
2019-01-06T09:47:57.101Z,3.92
2019-01-06T09:49:06.797Z,3.99
2019-01-06T09:50:16.742Z,4.1
2019-01-06T09:51:26.698Z,3.99
2019-01-06T09:52:36.652Z,4.21
2019-01-06T09:53:46.583Z,3.99
2019-01-06T09:54:56.527Z,4.03
2019-01-06T09:56:06.518Z,4.03
2019-01-06T09:57:16.956Z,4.14
2019-01-06T09:58:26.908Z,4.22
2019-01-06T09:59:36.868Z,4.18
2019-01-06T10:00:46.066Z,4.2
2019-01-06T10:01:57.507Z,4.21
2019-01-06T10:03:07.448Z,4.24
2019-01-06T10:04:17.134Z,4.24
2019-01-06T10:05:26.814Z,4.32
2019-01-06T10:06:36.784Z,4.43
2019-01-06T10:07:46.503Z,4.46
2019-01-06T10:08:56.214Z,4.39
2019-01-06T10:10:05.909Z,4.52
2019-01-06T10:11:15.851Z,4.4
2019-01-06T10:12:25.798Z,4.49
2019-01-06T10:13:35.744Z,4.58
2019-01-06T10:14:45.703Z,4.63
2019-01-06T10:15:54.894Z,4.66
2019-01-06T10:17:04.345Z,4.68
2019-01-06T10:18:14.307Z,4.7
2019-01-06T10:19:24.273Z,4.76
2019-01-06T10:20:34.206Z,4.86
2019-01-06T10:21:44.172Z,4.83
2019-01-06T10:22:53.869Z,4.71
2019-01-06T10:24:03.335Z,4.61
2019-01-06T10:25:13.349Z,4.6
2019-01-06T10:26:23.305Z,4.66
2019-01-06T10:27:33.007Z,4.61
2019-01-06T10:28:42.968Z,4.6
2019-01-06T10:29:54.548Z,4.64
2019-01-06T10:31:04.257Z,4.67
2019-01-06T10:32:13.760Z,4.71
2019-01-06T10:33:23.714Z,4.78
2019-01-06T10:34:33.670Z,4.84
2019-01-06T10:35:43.373Z,5
2019-01-06T10:36:53.375Z,4.95
2019-01-06T10:38:03.073Z,4.97
2019-01-06T10:39:13.112Z,5
2019-01-06T10:40:23.051Z,5
2019-01-06T10:41:32.758Z,5
2019-01-06T10:42:42.716Z,5
2019-01-06T10:43:52.685Z,5.05
2019-01-06T10:45:02.638Z,5.12
2019-01-06T10:46:12.594Z,5.18
2019-01-06T10:47:22.035Z,5.19
2019-01-06T10:48:31.732Z,5.28
2019-01-06T10:49:41.695Z,5.41
2019-01-06T10:50:51.652Z,5.49
2019-01-06T10:52:00.841Z,5.54
2019-01-06T10:53:10.632Z,5.7
2019-01-06T10:54:20.343Z,5.67
2019-01-06T10:55:30.050Z,5.79
2019-01-06T10:56:40.002Z,5.77
2019-01-06T10:57:49.940Z,5.79
2019-01-06T10:58:59.899Z,5.84
2019-01-06T11:00:10.095Z,5.72
2019-01-06T11:01:19.814Z,5.64
2019-01-06T11:02:29.592Z,5.67
2019-01-06T11:03:39.286Z,5.64
2019-01-06T11:04:48.988Z,5.56
2019-01-06T11:05:58.950Z,5.56
2019-01-06T11:07:08.644Z,5.56
2019-01-06T11:08:20.454Z,5.62
2019-01-06T11:09:30.159Z,5.47
2019-01-06T11:10:39.900Z,5.36
2019-01-06T11:11:49.870Z,5.16
2019-01-06T11:12:59.570Z,5.01
2019-01-06T11:14:09.026Z,4.87
2019-01-06T11:15:18.995Z,4.78
2019-01-06T11:16:28.693Z,4.67
2019-01-06T11:17:38.640Z,4.79
2019-01-06T11:18:48.610Z,4.83
2019-01-06T11:19:58.556Z,4.89
2019-01-06T11:21:08.570Z,4.86
2019-01-06T11:22:18.033Z,4.84
2019-01-06T11:23:27.815Z,4.83
2019-01-06T11:24:37.779Z,4.79
2019-01-06T11:25:47.734Z,4.7
2019-01-06T11:26:57.700Z,4.83
2019-01-06T11:28:07.654Z,4.97
2019-01-06T11:29:17.618Z,4.97
2019-01-06T11:30:27.578Z,4.9
2019-01-06T11:31:37.007Z,4.84
2019-01-06T11:32:46.968Z,4.86
2019-01-06T11:33:57.806Z,4.71
2019-01-06T11:35:07.857Z,4.87
2019-01-06T11:36:17.566Z,4.92
2019-01-06T11:37:28.110Z,4.97
2019-01-06T11:38:38.046Z,5.1
2019-01-06T11:39:47.231Z,4.92
2019-01-06T11:40:57.173Z,5.07
2019-01-06T11:42:13.436Z,5.01
2019-01-06T11:43:23.388Z,5.13
2019-01-06T11:44:33.336Z,5.19
2019-01-06T11:45:43.288Z,5.31
2019-01-06T11:46:53.234Z,5.38
2019-01-06T11:48:02.934Z,5.51
2019-01-06T11:49:12.897Z,5.56
2019-01-06T11:50:22.831Z,5.67
2019-01-06T11:51:32.805Z,5.79
2019-01-06T11:52:42.755Z,5.73
2019-01-06T11:53:52.536Z,5.72
2019-01-06T11:55:02.535Z,5.61
2019-01-06T11:56:12.493Z,5.55
2019-01-06T11:57:22.187Z,5.37
2019-01-06T11:58:32.226Z,5.1
2019-01-06T11:59:41.420Z,4.98
2019-01-06T12:00:50.860Z,5.05
2019-01-06T12:02:01.717Z,5.02
2019-01-06T12:03:11.668Z,5.12
2019-01-06T12:04:21.382Z,5.15
2019-01-06T12:05:31.331Z,5.19
2019-01-06T12:06:41.029Z,5.2
2019-01-06T12:07:50.721Z,5.23
2019-01-06T12:09:00.663Z,5.26
2019-01-06T12:10:10.352Z,5.2
2019-01-06T12:11:20.052Z,5.25
2019-01-06T12:12:30.000Z,5.28
2019-01-06T12:13:39.961Z,5.19
2019-01-06T12:14:49.912Z,5.12
2019-01-06T12:15:59.604Z,5.04
2019-01-06T12:17:09.295Z,5
2019-01-06T12:18:19.244Z,4.98
2019-01-06T12:19:36.298Z,5.02
2019-01-06T12:20:45.978Z,5.12
2019-01-06T12:21:55.656Z,5.12
2019-01-06T12:23:05.614Z,5.13
2019-01-06T12:24:15.068Z,5.1
2019-01-06T12:25:25.029Z,5.19
2019-01-06T12:26:34.961Z,5.22
2019-01-06T12:27:44.650Z,5.29
2019-01-06T12:28:54.102Z,5.22
2019-01-06T12:30:03.794Z,5.33
2019-01-06T12:31:13.739Z,5.29
2019-01-06T12:32:23.675Z,5.28
2019-01-06T12:33:33.388Z,5.25
2019-01-06T12:34:42.871Z,5.23
2019-01-06T12:35:52.547Z,5.12
2019-01-06T12:37:02.478Z,5.13
2019-01-06T12:38:11.926Z,5.2
2019-01-06T12:39:21.636Z,5.23
2019-01-06T12:40:31.584Z,5.26
2019-01-06T12:41:41.545Z,5.4
2019-01-06T12:42:51.494Z,5.37
2019-01-06T12:44:01.430Z,5.31
2019-01-06T12:45:11.366Z,5.25
2019-01-06T12:46:21.142Z,5.16
2019-01-06T12:47:30.581Z,5.19
2019-01-06T12:48:40.544Z,5.2
2019-01-06T12:49:50.231Z,5.22
2019-01-06T12:50:59.925Z,5.15
2019-01-06T12:52:09.866Z,5.22
2019-01-06T12:53:19.809Z,5.22
2019-01-06T12:54:29.760Z,5.25
2019-01-06T12:55:39.714Z,5.34
2019-01-06T12:56:50.336Z,5.33
2019-01-06T12:58:00.302Z,5.33
2019-01-06T12:59:10.033Z,5.31
2019-01-06T13:00:19.980Z,5.28
2019-01-06T13:01:29.942Z,5.28
2019-01-06T13:02:39.888Z,5.19
2019-01-06T13:03:49.620Z,5.23
2019-01-06T13:04:59.318Z,5.25
2019-01-06T13:06:09.274Z,5.16
2019-01-06T13:07:19.241Z,5.15
2019-01-06T13:08:29.239Z,5.01
2019-01-06T13:09:39.183Z,4.82
2019-01-06T13:10:49.137Z,4.84
2019-01-06T13:11:59.087Z,4.7
2019-01-06T13:13:08.800Z,4.57
2019-01-06T13:14:18.735Z,4.64
2019-01-06T13:15:28.706Z,4.61
2019-01-06T13:16:38.397Z,4.58
2019-01-06T13:17:48.333Z,4.58
2019-01-06T13:18:58.281Z,4.53
2019-01-06T13:20:09.871Z,4.48
2019-01-06T13:21:19.952Z,4.49
2019-01-06T13:22:29.911Z,4.43
2019-01-06T13:23:39.874Z,4.43
2019-01-06T13:24:49.662Z,4.31
2019-01-06T13:25:59.617Z,4.39
2019-01-06T13:27:09.573Z,4.36
2019-01-06T13:28:19.513Z,4.28
2019-01-06T13:29:29.473Z,4.22
2019-01-06T13:30:39.433Z,4.3
2019-01-06T13:31:49.143Z,4.28
2019-01-06T13:32:58.587Z,4.28
2019-01-06T13:34:08.288Z,4.28
2019-01-06T13:35:18.251Z,4.38
2019-01-06T13:36:27.936Z,4.3
2019-01-06T13:37:39.156Z,4.31
2019-01-06T13:38:48.857Z,4.42
2019-01-06T13:39:58.560Z,4.39
2019-01-06T13:41:08.521Z,4.42
2019-01-06T13:42:18.206Z,4.53
2019-01-06T13:43:27.886Z,4.5
2019-01-06T13:44:37.581Z,4.5
2019-01-06T13:45:47.271Z,4.49
2019-01-06T13:46:57.231Z,4.48
2019-01-06T13:48:07.176Z,4.49
2019-01-06T13:49:16.869Z,4.5
2019-01-06T13:50:26.578Z,4.46
2019-01-06T13:51:36.295Z,4.57
2019-01-06T13:52:46.263Z,4.57
2019-01-06T13:53:55.966Z,4.66
2019-01-06T13:55:05.932Z,4.66
2019-01-06T13:56:15.877Z,4.7
2019-01-06T13:57:25.831Z,4.7
2019-01-06T13:58:35.886Z,4.64
2019-01-06T13:59:45.853Z,4.87
2019-01-06T14:00:55.809Z,4.79
2019-01-06T14:02:05.766Z,4.83
2019-01-06T14:03:15.755Z,4.9
2019-01-06T14:04:25.458Z,4.87
2019-01-06T14:05:34.919Z,4.9
2019-01-06T14:06:44.125Z,4.98
2019-01-06T14:07:54.089Z,5.01
2019-01-06T14:09:03.809Z,5.01
2019-01-06T14:10:13.756Z,4.86
2019-01-06T14:11:23.713Z,4.87
2019-01-06T14:12:33.173Z,4.68
2019-01-06T14:13:43.151Z,4.64
2019-01-06T14:14:53.107Z,4.57
2019-01-06T14:16:02.820Z,4.56
2019-01-06T14:17:12.785Z,4.49
2019-01-06T14:18:22.503Z,4.43
2019-01-06T14:19:32.218Z,4.45
2019-01-06T14:20:41.671Z,4.34
2019-01-06T14:21:51.150Z,4.32
2019-01-06T14:23:01.077Z,4.42
2019-01-06T14:24:10.783Z,4.42
2019-01-06T14:25:20.735Z,4.39
2019-01-06T14:26:30.427Z,4.38
2019-01-06T14:27:40.484Z,4.45
2019-01-06T14:28:50.433Z,4.4
2019-01-06T14:30:00.362Z,4.39
2019-01-06T14:31:10.318Z,4.48
2019-01-06T14:32:20.266Z,4.46
2019-01-06T14:33:30.226Z,4.32
2019-01-06T14:34:40.185Z,4.39
2019-01-06T14:35:49.882Z,4.34
2019-01-06T14:36:59.812Z,4.39
2019-01-06T14:38:09.758Z,4.32
2019-01-06T14:39:19.437Z,4.38
2019-01-06T14:40:28.882Z,4.34
2019-01-06T14:41:38.558Z,4.4
2019-01-06T14:42:48.247Z,4.32
2019-01-06T14:43:58.093Z,4.31
2019-01-06T14:45:07.775Z,4.34
2019-01-06T14:46:17.728Z,4.31
2019-01-06T14:47:27.680Z,4.25
2019-01-06T14:48:37.657Z,4.22
2019-01-06T14:49:47.396Z,4.24
2019-01-06T14:50:56.834Z,4.2
2019-01-06T14:52:06.552Z,4.2
2019-01-06T14:53:16.513Z,4.22
2019-01-06T14:54:26.459Z,4.25
2019-01-06T14:55:36.147Z,4.2
2019-01-06T14:56:46.100Z,4.2
2019-01-06T14:57:56.064Z,4.2
2019-01-06T14:59:05.807Z,4.14
2019-01-06T15:00:15.521Z,4.06
2019-01-06T15:01:26.331Z,3.96
2019-01-06T15:02:35.551Z,4.1
2019-01-06T15:03:45.253Z,4
2019-01-06T15:04:54.965Z,3.99
2019-01-06T15:06:04.681Z,3.99
2019-01-06T15:07:14.391Z,4.02
2019-01-06T15:08:24.354Z,3.99
2019-01-06T15:09:33.821Z,3.95
2019-01-06T15:10:43.772Z,3.94
2019-01-06T15:11:53.465Z,3.94
2019-01-06T15:13:03.445Z,3.88
2019-01-06T15:14:12.885Z,3.82
2019-01-06T15:15:22.331Z,3.82
2019-01-06T15:16:32.053Z,3.86
2019-01-06T15:17:42.035Z,3.84
2019-01-06T15:18:51.758Z,3.88
2019-01-06T15:20:01.470Z,3.7
2019-01-06T15:21:10.924Z,3.71
2019-01-06T15:22:20.638Z,3.66
2019-01-06T15:23:30.336Z,3.7
2019-01-06T15:24:41.557Z,3.68
2019-01-06T15:25:51.259Z,3.7
2019-01-06T15:27:01.229Z,3.59
2019-01-06T15:28:11.180Z,3.58
2019-01-06T15:29:20.642Z,3.58
2019-01-06T15:30:30.105Z,3.61
2019-01-06T15:31:40.066Z,3.55
2019-01-06T15:32:50.039Z,3.53
2019-01-06T15:33:59.984Z,3.49